createdAt,value
2018-03-23T00:01:55.801Z,69.27
2018-03-23T00:04:24.941Z,72.00
2018-03-23T00:06:54.070Z,71.57
2018-03-23T00:09:23.238Z,70.07
2018-03-23T00:11:52.414Z,70.07
2018-03-23T00:14:21.604Z,73.13
2018-03-23T00:16:50.809Z,69.50
2018-03-23T00:19:19.981Z,72.60
2018-03-23T00:21:49.102Z,68.90
2018-03-23T00:24:18.293Z,71.27
2018-03-23T00:26:47.419Z,69.37
2018-03-23T00:29:16.563Z,71.40
2018-03-23T00:31:45.721Z,71.17
2018-03-23T00:34:14.842Z,70.97
2018-03-23T00:36:43.983Z,72.50
2018-03-23T00:39:13.145Z,73.37
2018-03-23T00:41:42.682Z,69.87
2018-03-23T00:44:11.922Z,74.47
2018-03-23T00:46:41.038Z,75.00
2018-03-23T00:49:10.154Z,77.87
2018-03-23T00:51:39.315Z,79.60
2018-03-23T00:54:08.466Z,79.23
2018-03-23T00:56:37.630Z,79.63
2018-03-23T00:59:06.826Z,76.63
2018-03-23T01:01:35.942Z,77.37
2018-03-23T01:04:05.077Z,74.50
2018-03-23T01:06:34.342Z,74.80
2018-03-23T01:09:03.422Z,77.97
2018-03-23T01:11:32.571Z,83.03
2018-03-23T01:14:01.757Z,80.23
2018-03-23T01:16:30.913Z,73.17
2018-03-23T01:19:00.746Z,70.40
2018-03-23T01:21:29.897Z,69.97
2018-03-23T01:23:59.043Z,65.27
2018-03-23T01:26:28.166Z,63.93
2018-03-23T01:28:57.370Z,62.10
2018-03-23T01:31:26.487Z,58.10
2018-03-23T01:33:55.653Z,57.90
2018-03-23T01:36:24.823Z,57.17
2018-03-23T01:38:53.976Z,59.60
2018-03-23T01:41:23.082Z,59.63
2018-03-23T01:43:52.415Z,58.00
2018-03-23T01:46:21.585Z,60.50
2018-03-23T01:48:50.796Z,69.07
2018-03-23T01:51:20.089Z,63.07
2018-03-23T01:53:49.211Z,67.07
2018-03-23T01:56:18.338Z,72.97
2018-03-23T01:58:47.494Z,75.67
2018-03-23T02:01:16.640Z,73.07
2018-03-23T02:03:45.793Z,79.53
2018-03-23T02:06:14.963Z,78.87
2018-03-23T02:08:44.109Z,77.30
2018-03-23T02:11:13.301Z,75.27
2018-03-23T02:13:42.470Z,74.43
2018-03-23T02:16:11.662Z,77.13
2018-03-23T02:18:40.820Z,74.47
2018-03-23T02:21:10.054Z,75.53
2018-03-23T02:23:39.258Z,81.17
2018-03-23T02:26:08.429Z,78.07
2018-03-23T02:28:37.569Z,77.53
2018-03-23T02:31:06.721Z,74.77
2018-03-23T02:33:35.896Z,76.37
2018-03-23T02:36:05.049Z,72.63
2018-03-23T02:38:34.257Z,73.67
2018-03-23T02:41:03.399Z,75.73
2018-03-23T02:43:32.539Z,73.20
2018-03-23T02:46:01.719Z,67.73
2018-03-23T02:48:30.877Z,65.00
2018-03-23T02:51:00.049Z,61.70
2018-03-23T02:53:29.216Z,67.17
2018-03-23T02:55:58.810Z,65.83
2018-03-23T02:58:27.957Z,61.17
2018-03-23T03:00:57.077Z,61.17
2018-03-23T03:03:26.268Z,62.30
2018-03-23T03:05:55.398Z,58.30
2018-03-23T03:08:24.541Z,61.97
2018-03-23T03:10:53.722Z,70.40
2018-03-23T03:13:22.865Z,64.63
2018-03-23T03:15:52.010Z,77.87
2018-03-23T03:18:21.206Z,76.37
2018-03-23T03:20:50.345Z,82.43
2018-03-23T03:23:19.478Z,82.87
2018-03-23T03:25:48.638Z,81.00
2018-03-23T03:28:17.791Z,83.87
2018-03-23T03:30:46.950Z,77.60
2018-03-23T03:33:16.120Z,77.97
2018-03-23T03:35:45.260Z,78.57
2018-03-23T03:38:14.393Z,79.57
2018-03-23T03:40:43.530Z,74.13
2018-03-23T03:43:12.646Z,81.60
2018-03-23T03:45:41.802Z,79.83
2018-03-23T03:48:11.381Z,81.73
2018-03-23T03:50:40.489Z,88.20
2018-03-23T03:53:09.614Z,89.93
2018-03-23T03:58:01.045Z,97.23
2018-03-23T04:00:30.189Z,100.20
2018-03-23T04:02:59.511Z,109.87
2018-03-23T04:05:28.650Z,112.67
2018-03-23T04:07:57.813Z,110.63
2018-03-23T04:10:26.951Z,107.63
2018-03-23T04:12:56.094Z,109.63
2018-03-23T04:15:25.233Z,107.33
2018-03-23T04:17:54.374Z,105.30
2018-03-23T04:20:23.543Z,106.47
2018-03-23T04:22:52.718Z,108.27
2018-03-23T04:25:21.854Z,105.83
2018-03-23T04:27:51.095Z,114.57
2018-03-23T04:30:20.238Z,112.67
2018-03-23T04:32:49.353Z,108.57
2018-03-23T04:35:18.509Z,111.37
2018-03-23T04:37:47.659Z,112.13
2018-03-23T04:40:16.781Z,112.73
2018-03-23T04:42:45.936Z,111.57
2018-03-23T04:45:15.137Z,109.67
2018-03-23T04:47:44.281Z,115.23
2018-03-23T04:50:13.598Z,107.93
2018-03-23T04:52:42.776Z,109.73
2018-03-23T04:55:11.917Z,107.63
2018-03-23T04:57:41.069Z,103.43
2018-03-23T05:00:10.258Z,102.27
2018-03-23T05:02:39.406Z,101.27
2018-03-23T05:05:08.554Z,97.30
2018-03-23T05:07:37.752Z,103.97
2018-03-23T05:10:06.886Z,98.57
2018-03-23T05:12:36.009Z,106.33
2018-03-23T05:15:05.161Z,107.73
2018-03-23T05:17:34.281Z,105.67
2018-03-23T05:20:03.430Z,104.43
2018-03-23T05:22:32.601Z,107.90
2018-03-23T05:25:01.787Z,105.57
2018-03-23T05:27:30.986Z,111.50
2018-03-23T05:30:00.107Z,111.97
2018-03-23T05:32:29.251Z,110.97
2018-03-23T05:34:58.445Z,107.43
2018-03-23T05:37:27.570Z,109.00
2018-03-23T05:39:56.681Z,105.87
2018-03-23T05:42:25.851Z,109.93
2018-03-23T05:44:55.004Z,102.50
2018-03-23T05:47:24.130Z,105.90
2018-03-23T05:49:53.288Z,108.87
2018-03-23T05:52:22.658Z,99.70
2018-03-23T05:54:51.786Z,95.90
2018-03-23T05:57:20.932Z,93.17
2018-03-23T05:59:50.085Z,84.37
2018-03-23T06:02:19.222Z,69.07
2018-03-23T06:04:48.446Z,66.57
2018-03-23T06:07:17.561Z,60.23
2018-03-23T06:09:46.709Z,54.13
2018-03-23T06:12:15.874Z,47.70
2018-03-23T06:14:45.037Z,47.57
2018-03-23T06:17:14.185Z,45.90
2018-03-23T06:19:43.365Z,44.50
2018-03-23T06:22:14.355Z,40.53
2018-03-23T06:24:43.493Z,40.10
2018-03-23T06:27:12.677Z,38.23
2018-03-23T06:29:41.802Z,39.03
2018-03-23T06:32:10.999Z,37.00
2018-03-23T06:34:40.137Z,37.97
2018-03-23T06:37:09.256Z,36.50
2018-03-23T06:39:38.415Z,37.07
2018-03-23T06:42:07.597Z,37.40
2018-03-23T06:44:36.755Z,38.97
2018-03-23T06:47:05.918Z,39.00
2018-03-23T06:49:35.069Z,39.13
2018-03-23T06:52:04.212Z,39.87
2018-03-23T06:54:33.828Z,38.70
2018-03-23T06:57:02.988Z,39.33
2018-03-23T06:59:32.110Z,38.63
2018-03-23T07:02:01.358Z,38.67
2018-03-23T07:04:30.553Z,42.33
2018-03-23T07:06:59.767Z,42.50
2018-03-23T07:09:28.937Z,40.87
2018-03-23T07:11:58.080Z,41.83
2018-03-23T07:14:27.285Z,39.33
2018-03-23T07:16:56.433Z,41.30
2018-03-23T07:19:25.584Z,40.07
2018-03-23T07:21:54.730Z,37.90
2018-03-23T07:24:23.846Z,39.37
2018-03-23T07:26:53.681Z,40.00
2018-03-23T07:29:22.877Z,38.10
2018-03-23T07:31:52.002Z,37.97
2018-03-23T07:34:21.156Z,36.87
2018-03-23T07:36:50.326Z,34.93
2018-03-23T07:39:19.497Z,36.07
2018-03-23T07:41:48.637Z,36.17
2018-03-23T07:44:17.814Z,34.23
2018-03-23T07:46:46.975Z,34.07
2018-03-23T07:49:16.137Z,34.20
2018-03-23T07:51:45.281Z,36.77
2018-03-23T07:54:14.481Z,35.67
2018-03-23T07:56:43.736Z,34.47
2018-03-23T07:59:12.906Z,34.87
2018-03-23T08:01:42.057Z,35.43
2018-03-23T08:04:11.225Z,35.30
2018-03-23T08:06:40.394Z,36.03
2018-03-23T08:09:09.550Z,34.50
2018-03-23T08:11:38.670Z,34.67
2018-03-23T08:14:07.829Z,37.07
2018-03-23T08:16:36.951Z,37.40
2018-03-23T08:19:06.096Z,36.07
2018-03-23T08:21:35.290Z,37.60
2018-03-23T08:24:04.523Z,37.40
2018-03-23T08:26:33.769Z,36.47
2018-03-23T08:29:02.886Z,34.70
2018-03-23T08:31:32.010Z,34.43
2018-03-23T08:34:01.204Z,37.03
2018-03-23T08:36:30.369Z,35.30
2018-03-23T08:38:59.509Z,34.83
2018-03-23T08:41:28.657Z,32.83
2018-03-23T08:43:57.854Z,33.00
2018-03-23T08:46:26.984Z,34.60
2018-03-23T08:48:56.127Z,34.13
2018-03-23T08:51:25.321Z,35.43
2018-03-23T08:53:54.445Z,35.00
2018-03-23T08:56:23.584Z,34.70
2018-03-23T08:58:52.752Z,33.27
2018-03-23T09:01:21.941Z,32.77
2018-03-23T09:03:51.148Z,32.10
2018-03-23T09:06:20.359Z,31.50
2018-03-23T09:08:49.496Z,32.60
2018-03-23T09:11:18.647Z,32.27
2018-03-23T09:13:47.825Z,29.97
2018-03-23T09:16:16.965Z,30.70
2018-03-23T09:18:46.117Z,31.97
2018-03-23T09:21:15.317Z,28.63
2018-03-23T09:23:44.464Z,29.67
2018-03-23T09:26:13.587Z,29.73
2018-03-23T09:28:42.754Z,28.40
2018-03-23T09:31:11.969Z,26.47
2018-03-23T09:33:41.137Z,25.13
2018-03-23T09:36:10.329Z,25.83
2018-03-23T09:38:39.461Z,26.60
2018-03-23T09:41:08.609Z,24.87
2018-03-23T09:43:37.756Z,26.37
2018-03-23T09:46:06.900Z,25.60
2018-03-23T09:48:36.030Z,24.00
2018-03-23T09:51:05.180Z,21.97
2018-03-23T09:53:34.354Z,21.87
2018-03-23T09:56:03.462Z,24.40
2018-03-23T09:58:32.583Z,23.93
2018-03-23T10:01:01.749Z,23.50
2018-03-23T10:03:30.883Z,22.10
2018-03-23T10:06:00.019Z,23.57
2018-03-23T10:08:29.157Z,24.87
2018-03-23T10:10:58.309Z,23.67
2018-03-23T10:13:27.448Z,24.13
2018-03-23T10:15:56.560Z,23.40
2018-03-23T10:18:25.730Z,23.03
2018-03-23T10:20:54.893Z,21.13
2018-03-23T10:23:24.047Z,21.27
2018-03-23T10:25:53.170Z,20.43
2018-03-23T10:28:22.390Z,19.10
2018-03-23T10:30:51.519Z,19.43
2018-03-23T10:33:20.686Z,19.40
2018-03-23T10:35:49.833Z,17.80
2018-03-23T10:38:18.982Z,17.43
2018-03-23T10:40:48.244Z,18.20
2018-03-23T10:43:17.410Z,17.63
2018-03-23T10:45:47.033Z,15.40
2018-03-23T10:48:16.208Z,18.47
2018-03-23T10:50:45.355Z,17.60
2018-03-23T10:53:14.522Z,17.93
2018-03-23T10:55:43.663Z,18.00
2018-03-23T10:58:13.023Z,17.40
2018-03-23T11:00:47.952Z,19.07
2018-03-23T11:03:17.098Z,19.67
2018-03-23T11:05:46.243Z,19.50
2018-03-23T11:08:15.454Z,18.20
2018-03-23T11:10:44.601Z,18.63
2018-03-23T11:13:13.730Z,18.80
2018-03-23T11:15:42.905Z,15.70
2018-03-23T11:18:12.044Z,17.13
2018-03-23T11:20:41.215Z,21.07
2018-03-23T11:23:10.338Z,24.60
2018-03-23T11:25:39.474Z,25.30
2018-03-23T11:28:08.619Z,27.87
2018-03-23T11:30:37.751Z,33.03
2018-03-23T11:33:06.894Z,26.83
2018-03-23T11:35:36.025Z,28.07
2018-03-23T11:38:05.181Z,26.50
2018-03-23T11:40:34.294Z,24.90
2018-03-23T11:43:03.481Z,25.10
2018-03-23T11:45:32.605Z,27.63
2018-03-23T11:48:01.762Z,26.33
2018-03-23T11:50:30.908Z,28.50
2018-03-23T11:53:00.140Z,26.30
2018-03-23T11:55:29.266Z,25.97
2018-03-23T11:57:58.558Z,26.70
2018-03-23T12:00:27.673Z,24.43
2018-03-23T12:02:57.050Z,22.17
2018-03-23T12:05:26.227Z,23.20
2018-03-23T12:07:55.346Z,21.43
2018-03-23T12:10:24.498Z,23.00
2018-03-23T12:12:53.615Z,25.47
2018-03-23T12:15:22.797Z,23.80
2018-03-23T12:17:51.919Z,22.90
2018-03-23T12:20:21.074Z,22.10
2018-03-23T12:22:50.206Z,20.73
2018-03-23T12:25:19.349Z,19.87
2018-03-23T12:27:48.521Z,17.60
2018-03-23T12:30:17.677Z,17.20
2018-03-23T12:32:46.830Z,16.50
2018-03-23T12:35:16.020Z,15.80
2018-03-23T12:37:45.141Z,15.50
2018-03-23T12:40:14.289Z,15.63
2018-03-23T12:42:43.499Z,14.10
2018-03-23T12:45:12.642Z,14.40
2018-03-23T12:47:41.784Z,14.47
2018-03-23T12:50:11.002Z,17.53
2018-03-23T12:52:40.137Z,16.80
2018-03-23T12:55:09.306Z,19.87
2018-03-23T12:57:38.487Z,19.27
2018-03-23T13:00:07.646Z,20.23
2018-03-23T13:02:36.778Z,23.50
2018-03-23T13:05:06.082Z,22.50
2018-03-23T13:07:35.206Z,21.40
2018-03-23T13:10:04.351Z,20.77
2018-03-23T13:12:33.546Z,20.90
2018-03-23T13:15:02.674Z,20.97
2018-03-23T13:17:31.859Z,20.90
2018-03-23T13:20:01.016Z,21.90
2018-03-23T13:22:30.133Z,21.47
2018-03-23T13:24:59.312Z,23.40
2018-03-23T13:27:28.449Z,21.80
2018-03-23T13:29:57.598Z,19.93
2018-03-23T13:32:26.743Z,20.80
2018-03-23T13:34:55.885Z,19.60
2018-03-23T13:37:25.106Z,20.17
2018-03-23T13:39:54.223Z,20.87
2018-03-23T13:42:23.368Z,21.10
2018-03-23T13:44:52.474Z,19.07
2018-03-23T13:47:21.610Z,20.23
2018-03-23T13:49:50.777Z,20.70
2018-03-23T13:52:19.981Z,20.70
2018-03-23T13:54:49.097Z,18.87
2018-03-23T13:57:18.257Z,17.13
2018-03-23T13:59:53.082Z,17.10
2018-03-23T14:02:22.261Z,19.20
2018-03-23T14:04:51.435Z,19.63
2018-03-23T14:07:20.578Z,19.30
2018-03-23T14:09:49.721Z,22.97
2018-03-23T14:12:18.923Z,23.93
2018-03-23T14:14:48.051Z,27.30
2018-03-23T14:17:17.193Z,25.50
2018-03-23T14:19:46.334Z,26.40
2018-03-23T14:22:15.484Z,26.40
2018-03-23T14:24:44.590Z,24.03
2018-03-23T14:27:13.751Z,24.90
2018-03-23T14:29:42.905Z,25.10
2018-03-23T14:32:12.033Z,23.23
2018-03-23T14:34:41.205Z,23.80
2018-03-23T14:37:10.338Z,24.07
2018-03-23T14:39:39.501Z,22.50
2018-03-23T14:42:08.663Z,20.80
2018-03-23T14:44:37.797Z,20.57
2018-03-23T14:47:06.950Z,21.63
2018-03-23T14:49:36.069Z,21.10
2018-03-23T14:52:05.206Z,18.97
2018-03-23T14:54:34.371Z,20.50
2018-03-23T14:57:03.494Z,20.90
2018-03-23T14:59:34.447Z,20.23
2018-03-23T15:02:03.563Z,22.07
2018-03-23T15:04:32.715Z,21.30
2018-03-23T15:07:01.934Z,20.60
2018-03-23T15:09:31.079Z,19.87
2018-03-23T15:12:00.251Z,19.47
2018-03-23T15:14:30.075Z,18.37
2018-03-23T15:16:59.242Z,19.77
2018-03-23T15:19:28.378Z,18.80
2018-03-23T15:21:57.500Z,18.97
2018-03-23T15:24:26.618Z,17.90
2018-03-23T15:26:55.829Z,18.30
2018-03-23T15:29:24.995Z,18.93
2018-03-23T15:31:54.145Z,18.30
2018-03-23T15:34:23.279Z,18.13
2018-03-23T15:36:52.446Z,17.73
2018-03-23T15:39:21.574Z,17.40
2018-03-23T15:41:50.709Z,18.70
2018-03-23T15:44:19.854Z,18.93
2018-03-23T15:46:49.003Z,17.80
2018-03-23T15:49:18.122Z,17.57
2018-03-23T15:51:47.288Z,18.40
2018-03-23T15:54:16.427Z,18.70
2018-03-23T15:56:45.581Z,18.70
2018-03-23T15:59:14.751Z,18.47
2018-03-23T16:01:43.903Z,17.67
2018-03-23T16:04:13.022Z,16.90
2018-03-23T16:06:42.193Z,18.27
2018-03-23T16:09:11.380Z,18.70
2018-03-23T16:11:40.494Z,17.87
2018-03-23T16:14:09.661Z,17.50
2018-03-23T16:16:38.780Z,18.20
2018-03-23T16:19:07.908Z,19.13
2018-03-23T16:21:37.050Z,18.50
2018-03-23T16:24:06.214Z,19.70
2018-03-23T16:26:35.328Z,18.20
2018-03-23T16:29:04.443Z,18.73
2018-03-23T16:31:33.585Z,18.43
2018-03-23T16:34:02.701Z,19.00
2018-03-23T16:36:31.839Z,18.50
2018-03-23T16:39:00.981Z,18.30
2018-03-23T16:41:30.158Z,19.30
2018-03-23T16:43:59.313Z,18.10
2018-03-23T16:46:28.484Z,19.83
2018-03-23T16:48:57.601Z,19.33
2018-03-23T16:51:26.785Z,19.50
2018-03-23T16:53:55.928Z,17.57
2018-03-23T16:56:25.119Z,18.97
2018-03-23T16:58:54.252Z,18.23
2018-03-23T17:01:23.408Z,20.40
2018-03-23T17:03:52.550Z,18.87
2018-03-23T17:06:21.693Z,19.07
2018-03-23T17:08:50.820Z,19.30
2018-03-23T17:11:19.980Z,20.00
2018-03-23T17:13:49.131Z,20.83
2018-03-23T17:16:18.269Z,20.27
2018-03-23T17:18:47.447Z,21.60
2018-03-23T17:21:16.599Z,20.70
2018-03-23T17:23:45.740Z,21.30
2018-03-23T17:26:14.887Z,22.37
2018-03-23T17:28:44.009Z,20.50
2018-03-23T17:31:13.149Z,21.50
2018-03-23T17:33:42.318Z,22.53
2018-03-23T17:36:11.443Z,22.43
2018-03-23T17:38:40.791Z,22.60
2018-03-23T17:41:09.942Z,23.77
2018-03-23T17:43:39.052Z,23.87
2018-03-23T17:46:08.249Z,25.43
2018-03-23T17:48:37.385Z,23.63
2018-03-23T17:51:06.499Z,25.57
2018-03-23T17:53:35.693Z,25.50
2018-03-23T17:56:04.865Z,24.53
2018-03-23T17:58:33.997Z,25.93
2018-03-23T18:01:03.162Z,24.37
2018-03-23T18:03:32.301Z,26.00
2018-03-23T18:06:01.432Z,26.03
2018-03-23T18:08:30.802Z,26.10
2018-03-23T18:11:00.001Z,25.10
2018-03-23T18:13:29.146Z,25.23
2018-03-23T18:15:58.290Z,25.03
2018-03-23T18:18:27.474Z,23.73
2018-03-23T18:20:56.679Z,26.00
2018-03-23T18:23:25.810Z,31.07
2018-03-23T18:25:54.978Z,33.87
2018-03-23T18:28:24.129Z,32.90
2018-03-23T18:30:53.289Z,32.03
2018-03-23T18:33:22.453Z,32.37
2018-03-23T18:35:51.615Z,34.47
2018-03-23T18:38:20.747Z,33.70
2018-03-23T18:40:49.890Z,34.60
2018-03-23T18:43:19.058Z,33.00
2018-03-23T18:45:48.212Z,30.10
2018-03-23T18:48:17.328Z,30.33
2018-03-23T18:50:46.503Z,27.87
2018-03-23T18:53:15.653Z,26.47
2018-03-23T18:55:44.798Z,27.17
2018-03-23T18:58:14.003Z,28.73
2018-03-23T19:00:43.145Z,32.17
2018-03-23T19:03:12.270Z,38.60
2018-03-23T19:05:41.461Z,38.83
2018-03-23T19:08:10.603Z,39.53
2018-03-23T19:10:39.745Z,36.93
2018-03-23T19:13:08.913Z,36.20
2018-03-23T19:15:38.211Z,32.93
2018-03-23T19:18:07.304Z,31.60
2018-03-23T19:20:36.470Z,30.07
2018-03-23T19:23:05.609Z,29.20
2018-03-23T19:25:34.755Z,30.50
2018-03-23T19:28:03.940Z,28.93
2018-03-23T19:30:33.623Z,28.97
2018-03-23T19:33:02.741Z,31.20
2018-03-23T19:35:32.004Z,30.50
2018-03-23T19:38:01.149Z,30.80
2018-03-23T19:40:30.278Z,26.40
2018-03-23T19:42:59.450Z,30.87
2018-03-23T19:45:28.611Z,33.20
2018-03-23T19:47:57.725Z,32.00
2018-03-23T19:50:26.888Z,32.70
2018-03-23T19:52:56.030Z,31.20
2018-03-23T19:55:25.173Z,31.87
2018-03-23T19:57:54.450Z,34.70
2018-03-23T20:00:23.599Z,32.03
2018-03-23T20:02:52.747Z,31.40
2018-03-23T20:05:22.025Z,36.67
2018-03-23T20:07:51.273Z,34.00
2018-03-23T20:10:20.424Z,32.20
2018-03-23T20:12:49.555Z,30.60
2018-03-23T20:15:18.761Z,34.70
2018-03-23T20:17:53.599Z,33.77
2018-03-23T20:20:28.612Z,31.50
2018-03-23T20:22:57.756Z,35.60
2018-03-23T20:25:26.885Z,32.90
2018-03-23T20:28:01.885Z,33.80
2018-03-23T20:30:31.010Z,35.60
2018-03-23T20:33:00.330Z,35.23
2018-03-23T20:35:29.529Z,35.30
2018-03-23T20:37:58.682Z,31.37
2018-03-23T20:40:27.814Z,31.70
2018-03-23T20:42:56.957Z,34.43
2018-03-23T20:45:26.099Z,35.00
2018-03-23T20:47:55.240Z,34.63
2018-03-23T20:50:24.433Z,34.40
2018-03-23T20:52:53.549Z,34.87
2018-03-23T20:55:22.696Z,33.80
2018-03-23T20:57:51.844Z,35.03
2018-03-23T21:00:20.978Z,33.63
2018-03-23T21:02:50.100Z,34.40
2018-03-23T21:05:19.288Z,35.83
2018-03-23T21:07:48.426Z,34.80
2018-03-23T21:10:17.582Z,34.37
2018-03-23T21:12:46.698Z,37.07
2018-03-23T21:15:15.870Z,34.03
2018-03-23T21:17:44.989Z,32.23
2018-03-23T21:20:14.138Z,35.40
2018-03-23T21:22:43.290Z,36.30
2018-03-23T21:25:12.507Z,36.63
2018-03-23T21:27:41.647Z,35.70
2018-03-23T21:30:10.807Z,35.93
2018-03-23T21:32:39.943Z,36.90
2018-03-23T21:35:09.073Z,36.63
2018-03-23T21:37:38.270Z,34.97
2018-03-23T21:40:07.701Z,33.80
2018-03-23T21:42:36.840Z,34.30
2018-03-23T21:45:06.042Z,34.00
2018-03-23T21:47:35.178Z,35.00
2018-03-23T21:50:04.352Z,35.53
2018-03-23T21:52:33.499Z,38.17
2018-03-23T21:55:02.660Z,36.30
2018-03-23T21:57:31.838Z,34.63
2018-03-23T22:00:01.003Z,34.13
2018-03-23T22:02:30.141Z,36.93
2018-03-23T22:04:59.302Z,35.60
2018-03-23T22:07:28.439Z,39.57
2018-03-23T22:09:57.578Z,37.77
2018-03-23T22:12:26.726Z,38.57
2018-03-23T22:14:55.870Z,37.77
2018-03-23T22:17:25.031Z,38.47
2018-03-23T22:19:54.185Z,39.80
2018-03-23T22:22:23.305Z,39.40
2018-03-23T22:24:52.502Z,39.37
2018-03-23T22:27:21.645Z,39.90
2018-03-23T22:29:50.826Z,38.10
2018-03-23T22:32:19.978Z,39.70
2018-03-23T22:34:49.155Z,39.83
2018-03-23T22:37:18.298Z,39.73
2018-03-23T22:39:47.490Z,39.10
2018-03-23T22:42:16.679Z,41.60
2018-03-23T22:44:45.900Z,38.30
2018-03-23T22:47:15.048Z,38.53
2018-03-23T22:49:44.196Z,40.30
2018-03-23T22:52:13.334Z,39.63
2018-03-23T22:54:42.477Z,37.60
2018-03-23T22:57:11.650Z,42.97
2018-03-23T22:59:40.790Z,40.20
2018-03-23T23:02:09.940Z,39.77
2018-03-23T23:04:39.100Z,38.73
2018-03-23T23:07:08.251Z,41.90
2018-03-23T23:09:37.402Z,43.83
2018-03-23T23:12:06.595Z,38.93
2018-03-23T23:14:35.775Z,40.27
2018-03-23T23:17:04.915Z,42.00
2018-03-23T23:19:34.069Z,40.47
2018-03-23T23:22:03.206Z,42.93
2018-03-23T23:24:32.380Z,43.40
2018-03-23T23:27:01.620Z,42.23
2018-03-23T23:29:30.794Z,39.00
2018-03-23T23:31:59.930Z,42.67
2018-03-23T23:34:29.041Z,42.13
2018-03-23T23:36:58.237Z,41.70
2018-03-23T23:39:27.373Z,42.90
2018-03-23T23:41:56.526Z,44.07
2018-03-23T23:44:25.694Z,81.30
2018-03-23T23:46:54.812Z,45.83
2018-03-23T23:49:23.971Z,42.37
2018-03-23T23:51:53.090Z,41.80
2018-03-23T23:54:22.386Z,39.83
2018-03-23T23:56:51.510Z,39.90
2018-03-23T23:59:20.681Z,41.73
